createdAt,value
2018-12-23T00:02:00.525Z,93.70
2018-12-23T00:04:26.413Z,93.75
2018-12-23T00:06:52.324Z,93.21
2018-12-23T00:09:18.241Z,93.08
2018-12-23T00:11:44.727Z,93.98
2018-12-23T00:14:14.338Z,93.69
2018-12-23T00:16:43.319Z,93.71
2018-12-23T00:19:09.220Z,93.73
2018-12-23T00:21:35.084Z,93.95
2018-12-23T00:24:01.016Z,92.88
2018-12-23T00:26:26.878Z,92.36
2018-12-23T00:28:55.563Z,92.67
2018-12-23T00:31:21.578Z,92.69
2018-12-23T00:33:50.698Z,92.74
2018-12-23T00:36:17.861Z,92.94
2018-12-23T00:38:45.354Z,93.14
2018-12-23T00:41:11.289Z,93.48
2018-12-23T00:43:37.507Z,93.67
2018-12-23T00:46:03.369Z,93.50
2018-12-23T00:48:29.295Z,93.99
2018-12-23T00:50:57.008Z,94.16
2018-12-23T00:53:23.312Z,94.65
2018-12-23T00:55:53.697Z,94.41
2018-12-23T00:58:19.586Z,94.39
2018-12-23T01:00:46.445Z,95.11
2018-12-23T01:03:12.373Z,95.25
2018-12-23T01:05:41.680Z,95.87
2018-12-23T01:08:07.666Z,96.97
2018-12-23T01:10:36.763Z,97.23
2018-12-23T01:13:02.698Z,96.88
2018-12-23T01:15:32.557Z,96.99
2018-12-23T01:17:58.511Z,97.35
2018-12-23T01:20:24.444Z,97.38
2018-12-23T01:22:50.313Z,96.83
2018-12-23T01:25:16.161Z,96.58
2018-12-23T01:27:43.411Z,96.27
2018-12-23T01:30:09.615Z,96.65
2018-12-23T01:32:38.527Z,96.37
2018-12-23T01:35:04.552Z,95.79
2018-12-23T01:37:32.182Z,94.19
2018-12-23T01:39:58.092Z,94.02
2018-12-23T01:42:28.001Z,93.58
2018-12-23T01:44:54.029Z,93.90
2018-12-23T01:47:21.966Z,93.22
2018-12-23T01:49:47.840Z,93.52
2018-12-23T01:52:18.160Z,93.85
2018-12-23T01:54:44.080Z,93.39
2018-12-23T01:57:09.946Z,92.87
2018-12-23T01:59:35.843Z,93.79
2018-12-23T02:02:01.693Z,93.18
2018-12-23T02:04:27.732Z,94.22
2018-12-23T02:06:53.609Z,92.87
2018-12-23T02:09:22.405Z,93.54
2018-12-23T02:11:48.303Z,93.44
2018-12-23T02:14:17.037Z,93.62
2018-12-23T02:16:42.915Z,93.00
2018-12-23T02:19:11.745Z,93.66
2018-12-23T02:21:37.612Z,92.96
2018-12-23T02:24:06.404Z,93.02
2018-12-23T02:26:32.327Z,93.21
2018-12-23T02:29:01.303Z,93.49
2018-12-23T02:31:27.254Z,93.60
2018-12-23T02:33:53.247Z,93.53
2018-12-23T02:36:19.167Z,93.74
2018-12-23T02:38:45.147Z,93.93
2018-12-23T02:41:12.847Z,94.10
2018-12-23T02:43:39.497Z,93.63
2018-12-23T02:46:09.336Z,93.82
2018-12-23T02:48:35.235Z,94.05
2018-12-23T02:51:03.076Z,94.62
2018-12-23T02:53:28.988Z,93.89
2018-12-23T02:55:58.818Z,94.50
2018-12-23T02:58:24.705Z,94.28
2018-12-23T03:00:51.693Z,95.18
2018-12-23T03:03:17.620Z,93.96
2018-12-23T03:05:46.517Z,93.92
2018-12-23T03:08:12.399Z,94.33
2018-12-23T03:10:38.323Z,94.46
2018-12-23T03:13:04.219Z,94.23
2018-12-23T03:15:30.110Z,94.24
2018-12-23T03:17:59.077Z,93.87
2018-12-23T03:20:24.918Z,94.46
2018-12-23T03:22:54.721Z,93.94
2018-12-23T03:25:20.653Z,93.68
2018-12-23T03:27:48.413Z,93.99
2018-12-23T03:30:14.311Z,93.91
2018-12-23T03:32:44.187Z,92.94
2018-12-23T03:35:10.059Z,93.44
2018-12-23T03:37:37.822Z,94.00
2018-12-23T03:40:03.946Z,94.29
2018-12-23T03:42:33.470Z,93.96
2018-12-23T03:44:59.449Z,94.19
2018-12-23T03:47:25.404Z,93.80
2018-12-23T03:49:51.328Z,94.35
2018-12-23T03:52:17.235Z,93.88
2018-12-23T03:54:44.018Z,93.77
2018-12-23T03:57:09.895Z,93.44
2018-12-23T03:59:38.681Z,94.02
2018-12-23T04:02:04.566Z,94.28
2018-12-23T04:04:32.937Z,94.28
2018-12-23T04:06:59.095Z,93.49
2018-12-23T04:09:28.136Z,94.30
2018-12-23T04:11:54.021Z,93.99
2018-12-23T04:14:22.840Z,94.01
2018-12-23T04:16:48.732Z,93.31
2018-12-23T04:19:17.487Z,93.66
2018-12-23T04:21:44.827Z,93.14
2018-12-23T04:24:10.730Z,93.14
2018-12-23T04:26:36.621Z,92.31
2018-12-23T04:29:02.637Z,92.74
2018-12-23T04:31:29.446Z,92.80
2018-12-23T04:33:55.384Z,92.75
2018-12-23T04:36:34.013Z,92.81
2018-12-23T04:38:56.742Z,91.97
2018-12-23T04:41:22.635Z,91.65
2018-12-23T04:43:48.536Z,91.74
2018-12-23T04:46:14.589Z,91.28
2018-12-23T04:48:40.504Z,91.80
2018-12-23T04:51:08.382Z,92.13
2018-12-23T04:53:34.256Z,92.16
2018-12-23T04:56:04.118Z,93.09
2018-12-23T04:58:30.148Z,92.35
2018-12-23T05:00:56.235Z,92.69
2018-12-23T05:03:22.106Z,93.08
2018-12-23T05:05:48.034Z,92.68
2018-12-23T05:08:14.735Z,92.93
2018-12-23T05:10:40.632Z,92.82
2018-12-23T05:13:11.914Z,92.20
2018-12-23T05:15:37.902Z,92.50
2018-12-23T05:18:03.858Z,92.00
2018-12-23T05:20:29.745Z,91.96
2018-12-23T05:22:58.372Z,91.83
2018-12-23T05:25:24.236Z,91.91
2018-12-23T05:27:54.345Z,92.85
2018-12-23T05:30:20.256Z,92.03
2018-12-23T05:32:49.453Z,92.87
2018-12-23T05:35:15.316Z,91.86
2018-12-23T05:37:41.191Z,91.12
2018-12-23T05:40:07.145Z,91.62
2018-12-23T05:42:33.075Z,91.39
2018-12-23T05:45:00.493Z,91.97
2018-12-23T05:47:26.444Z,91.15
2018-12-23T05:49:55.374Z,91.21
2018-12-23T05:52:21.249Z,91.41
2018-12-23T05:54:49.007Z,91.66
2018-12-23T05:57:14.937Z,91.50
2018-12-23T05:59:43.645Z,92.11
2018-12-23T06:02:09.558Z,91.34
2018-12-23T06:04:38.306Z,91.26
2018-12-23T06:07:04.176Z,91.58
2018-12-23T06:09:33.019Z,92.15
2018-12-23T06:11:59.038Z,91.91
2018-12-23T06:14:25.234Z,91.54
2018-12-23T06:16:51.196Z,91.57
2018-12-23T06:19:17.144Z,92.01
2018-12-23T06:21:46.196Z,92.06
2018-12-23T06:24:12.097Z,91.60
2018-12-23T06:26:39.953Z,91.31
2018-12-23T06:29:05.833Z,92.06
2018-12-23T06:31:35.429Z,91.63
2018-12-23T06:34:01.351Z,92.55
2018-12-23T06:36:29.108Z,92.63
2018-12-23T06:38:56.527Z,93.09
2018-12-23T06:41:23.849Z,94.26
2018-12-23T06:43:50.890Z,94.85
2018-12-23T06:46:18.546Z,95.80
2018-12-23T06:48:44.419Z,96.49
2018-12-23T06:51:10.423Z,97.13
2018-12-23T06:53:36.330Z,98.25
2018-12-23T06:56:02.216Z,99.23
2018-12-23T06:58:31.134Z,99.50
2018-12-23T07:00:57.036Z,99.49
2018-12-23T07:03:26.890Z,99.66
2018-12-23T07:05:52.773Z,99.16
2018-12-23T07:08:20.600Z,99.13
2018-12-23T07:10:46.532Z,98.81
2018-12-23T07:13:14.428Z,98.96
2018-12-23T07:15:40.398Z,99.02
2018-12-23T07:18:08.794Z,98.37
2018-12-23T07:20:34.746Z,98.81
2018-12-23T07:23:03.623Z,98.35
2018-12-23T07:25:29.537Z,98.72
2018-12-23T07:27:55.497Z,97.57
2018-12-23T07:30:21.530Z,97.81
2018-12-23T07:32:47.405Z,97.98
2018-12-23T07:35:16.565Z,97.78
2018-12-23T07:37:42.422Z,97.90
2018-12-23T07:40:11.354Z,97.75
2018-12-23T07:42:37.253Z,97.94
2018-12-23T07:45:06.172Z,97.76
2018-12-23T07:47:32.082Z,97.09
2018-12-23T07:50:01.261Z,96.74
2018-12-23T07:52:27.206Z,97.03
2018-12-23T07:54:54.814Z,96.39
2018-12-23T07:57:20.768Z,97.06
2018-12-23T07:59:49.644Z,97.41
2018-12-23T08:02:15.578Z,96.52
2018-12-23T08:04:41.506Z,96.75
2018-12-23T08:07:07.355Z,96.70
2018-12-23T08:09:33.279Z,96.25
2018-12-23T08:12:02.367Z,96.15
2018-12-23T08:14:28.285Z,97.09
2018-12-23T08:16:56.034Z,96.74
2018-12-23T08:19:21.949Z,96.97
2018-12-23T08:21:50.409Z,97.23
2018-12-23T08:24:16.321Z,96.87
2018-12-23T08:26:46.799Z,96.12
2018-12-23T08:29:12.671Z,96.44
2018-12-23T08:31:40.323Z,96.13
2018-12-23T08:34:06.334Z,95.42
2018-12-23T08:36:36.161Z,95.81
2018-12-23T08:39:03.495Z,95.63
2018-12-23T08:41:29.385Z,95.83
2018-12-23T08:43:55.617Z,95.17
2018-12-23T08:46:21.481Z,95.34
2018-12-23T08:48:47.391Z,95.25
2018-12-23T08:51:13.278Z,95.42
2018-12-23T08:53:42.231Z,95.03
2018-12-23T08:56:08.174Z,94.12
2018-12-23T08:58:35.895Z,93.96
2018-12-23T09:01:01.808Z,94.13
2018-12-23T09:03:30.723Z,93.71
2018-12-23T09:05:56.618Z,94.00
2018-12-23T09:08:25.420Z,93.45
2018-12-23T09:10:51.326Z,93.40
2018-12-23T09:13:19.962Z,92.29
2018-12-23T09:15:45.883Z,92.66
2018-12-23T09:18:19.133Z,92.54
2018-12-23T09:20:39.642Z,91.06
2018-12-23T09:23:05.578Z,91.48
2018-12-23T09:25:31.553Z,91.94
2018-12-23T09:27:57.438Z,91.22
2018-12-23T09:30:27.739Z,90.82
2018-12-23T09:32:53.644Z,90.79
2018-12-23T09:35:22.894Z,89.85
2018-12-23T09:37:48.828Z,88.30
2018-12-23T09:40:16.399Z,87.25
2018-12-23T09:42:42.287Z,86.53
2018-12-23T09:45:11.961Z,86.34
2018-12-23T09:47:37.969Z,85.49
2018-12-23T09:50:48.033Z,86.09
2018-12-23T09:53:16.077Z,85.47
2018-12-23T09:55:42.292Z,84.80
2018-12-23T09:58:08.241Z,83.38
2018-12-23T10:00:34.249Z,83.34
2018-12-23T10:03:00.247Z,82.79
2018-12-23T10:05:27.104Z,83.71
2018-12-23T10:07:53.083Z,83.23
2018-12-23T10:10:19.059Z,83.00
2018-12-23T10:12:45.237Z,82.65
2018-12-23T10:15:11.208Z,83.51
2018-12-23T10:17:37.480Z,83.39
2018-12-23T10:20:05.873Z,83.71
2018-12-23T10:22:31.836Z,84.05
2018-12-23T10:24:57.796Z,83.92
2018-12-23T10:27:24.040Z,84.38
2018-12-23T10:29:50.338Z,84.65
2018-12-23T10:32:20.144Z,83.81
2018-12-23T10:34:46.366Z,84.32
2018-12-23T10:37:12.331Z,84.17
2018-12-23T10:39:38.789Z,83.91
2018-12-23T10:42:04.731Z,83.38
2018-12-23T10:44:30.710Z,83.03
2018-12-23T10:46:57.693Z,83.50
2018-12-23T10:49:23.832Z,84.18
2018-12-23T10:51:49.798Z,83.89
2018-12-23T10:54:16.052Z,83.73
2018-12-23T10:56:42.044Z,84.50
2018-12-23T10:59:08.548Z,83.46
2018-12-23T11:01:34.513Z,83.76
2018-12-23T11:04:00.955Z,84.37
2018-12-23T11:06:27.023Z,84.13
2018-12-23T11:08:52.993Z,83.74
2018-12-23T11:11:18.987Z,83.10
2018-12-23T11:13:44.951Z,83.93
2018-12-23T11:16:15.977Z,84.72
2018-12-23T11:18:42.356Z,84.82
2018-12-23T11:21:08.372Z,85.15
2018-12-23T11:23:34.591Z,85.54
2018-12-23T11:26:00.534Z,84.33
2018-12-23T11:28:26.495Z,85.39
2018-12-23T11:30:52.731Z,85.36
2018-12-23T11:33:18.745Z,84.87
2018-12-23T11:35:44.959Z,85.21
2018-12-23T11:38:10.936Z,85.37
2018-12-23T11:40:36.915Z,84.89
2018-12-23T11:43:03.501Z,85.45
2018-12-23T11:45:29.822Z,86.31
2018-12-23T11:47:55.766Z,85.97
2018-12-23T11:50:21.758Z,86.48
2018-12-23T11:52:48.008Z,86.45
2018-12-23T11:55:14.095Z,85.24
2018-12-23T11:57:40.118Z,86.86
2018-12-23T12:00:06.457Z,86.23
2018-12-23T12:02:33.189Z,87.12
2018-12-23T12:04:59.146Z,87.75
2018-12-23T12:07:25.443Z,88.41
2018-12-23T12:09:51.370Z,88.84
2018-12-23T12:12:17.343Z,89.89
2018-12-23T12:14:43.380Z,90.66
2018-12-23T12:17:09.341Z,91.24
2018-12-23T12:19:35.313Z,92.32
2018-12-23T12:22:01.436Z,92.84
2018-12-23T12:24:27.400Z,93.42
2018-12-23T12:26:53.392Z,93.99
2018-12-23T12:29:19.356Z,94.70
2018-12-23T12:31:45.924Z,95.15
2018-12-23T12:34:13.644Z,95.55
2018-12-23T12:36:39.970Z,96.54
2018-12-23T12:39:09.519Z,96.86
2018-12-23T12:41:35.795Z,96.21
2018-12-23T12:44:04.558Z,97.27
2018-12-23T12:46:30.516Z,97.10
2018-12-23T12:48:59.772Z,96.94
2018-12-23T12:51:26.172Z,97.38
2018-12-23T12:53:52.111Z,97.47
2018-12-23T12:56:18.075Z,97.88
2018-12-23T12:58:44.486Z,98.73
2018-12-23T13:01:10.464Z,98.42
2018-12-23T13:03:36.755Z,98.39
2018-12-23T13:06:05.542Z,99.29
2018-12-23T13:08:31.832Z,99.93
2018-12-23T13:11:00.793Z,100.00
2018-12-23T13:13:27.022Z,100.00
2018-12-23T13:15:52.984Z,100.00
2018-12-23T13:18:18.955Z,100.00
2018-12-23T13:20:48.051Z,100.00
2018-12-23T13:23:14.006Z,100.00
2018-12-23T13:25:42.994Z,100.00
2018-12-23T13:28:12.485Z,100.00
2018-12-23T13:30:39.171Z,100.00
2018-12-23T13:33:05.352Z,100.00
2018-12-23T13:35:31.319Z,100.00
2018-12-23T13:37:57.309Z,100.00
2018-12-23T13:40:41.933Z,100.00
2018-12-23T13:43:20.505Z,100.00
2018-12-23T13:45:53.584Z,100.00
2018-12-23T13:48:32.197Z,100.00
2018-12-23T13:51:29.419Z,100.00
2018-12-23T13:53:58.078Z,100.00
2018-12-23T13:56:33.612Z,100.00
2018-12-23T13:59:16.153Z,100.00
2018-12-23T14:02:07.043Z,100.00
2018-12-23T14:04:55.286Z,100.00
2018-12-23T14:07:46.475Z,100.00
2018-12-23T14:10:31.743Z,100.00
2018-12-23T14:12:59.881Z,100.00
2018-12-23T14:15:26.414Z,100.00
2018-12-23T14:17:52.377Z,100.00
2018-12-23T14:20:18.618Z,100.00
2018-12-23T14:22:44.870Z,100.00
2018-12-23T14:25:10.811Z,100.00
2018-12-23T14:27:36.798Z,100.00
2018-12-23T14:30:04.465Z,100.00
2018-12-23T14:32:30.763Z,100.00
2018-12-23T14:34:56.832Z,100.00
2018-12-23T14:37:22.794Z,100.00
2018-12-23T14:39:49.051Z,100.00
2018-12-23T14:42:15.010Z,100.00
2018-12-23T14:44:41.249Z,100.00
2018-12-23T14:47:07.228Z,100.00
2018-12-23T14:49:33.473Z,100.00
2018-12-23T14:52:02.126Z,100.00
2018-12-23T14:54:28.759Z,100.00
2018-12-23T14:56:54.674Z,100.00
2018-12-23T14:59:20.642Z,100.00
2018-12-23T15:01:46.735Z,100.00
2018-12-23T15:04:13.011Z,100.00
2018-12-23T15:06:38.971Z,100.00
2018-12-23T15:09:05.273Z,100.00
2018-12-23T15:11:31.338Z,100.00
2018-12-23T15:13:57.327Z,100.00
2018-12-23T15:16:23.257Z,100.00
2018-12-23T15:18:49.228Z,100.00
2018-12-23T15:21:15.458Z,100.00
2018-12-23T15:23:41.447Z,100.00
2018-12-23T15:26:07.681Z,100.00
2018-12-23T15:28:33.634Z,100.00
2018-12-23T15:31:02.517Z,100.00
2018-12-23T15:33:28.609Z,100.00
2018-12-23T15:35:54.544Z,100.00
2018-12-23T15:38:20.531Z,100.00
2018-12-23T15:40:46.467Z,100.00
2018-12-23T15:43:12.437Z,100.00
2018-12-23T15:45:38.617Z,100.00
2018-12-23T15:48:04.743Z,100.00
2018-12-23T15:50:30.711Z,100.00
2018-12-23T15:52:57.013Z,100.00
2018-12-23T15:55:23.259Z,100.00
2018-12-23T15:57:49.244Z,100.00
2018-12-23T16:00:15.193Z,100.00
2018-12-23T16:02:41.174Z,100.00
2018-12-23T16:05:07.459Z,100.00
2018-12-23T16:07:33.677Z,100.00
2018-12-23T16:09:59.840Z,100.00
2018-12-23T16:12:25.804Z,100.00
2018-12-23T16:14:51.815Z,100.00
2018-12-23T16:17:17.769Z,100.00
2018-12-23T16:19:43.742Z,100.00
2018-12-23T16:22:09.721Z,100.00
2018-12-23T16:24:35.703Z,100.00
2018-12-23T16:27:01.685Z,100.00
2018-12-23T16:29:30.675Z,100.00
2018-12-23T16:31:57.148Z,100.00
2018-12-23T16:34:26.135Z,100.00
2018-12-23T16:36:52.331Z,100.00
2018-12-23T16:39:18.629Z,100.00
2018-12-23T16:41:44.593Z,100.00
2018-12-23T16:44:13.589Z,100.00
2018-12-23T16:46:39.788Z,100.00
2018-12-23T16:49:05.736Z,100.00
2018-12-23T16:51:32.013Z,100.00
2018-12-23T16:53:58.088Z,100.00
2018-12-23T16:56:25.705Z,100.00
2018-12-23T16:58:51.711Z,100.00
2018-12-23T17:01:20.445Z,100.00
2018-12-23T17:03:46.622Z,100.00
2018-12-23T17:06:15.765Z,100.00
2018-12-23T17:08:42.004Z,100.00
2018-12-23T17:11:10.802Z,100.00
2018-12-23T17:13:36.760Z,100.00
2018-12-23T17:16:02.705Z,100.00
2018-12-23T17:18:28.711Z,100.00
2018-12-23T17:20:54.663Z,100.00
2018-12-23T17:23:23.417Z,100.00
2018-12-23T17:25:49.673Z,100.00
2018-12-23T17:28:15.669Z,100.00
2018-12-23T17:30:41.867Z,100.00
2018-12-23T17:33:11.166Z,100.00
2018-12-23T17:35:37.605Z,100.00
2018-12-23T17:38:04.878Z,100.00
2018-12-23T17:40:30.829Z,100.00
2018-12-23T17:43:02.067Z,100.00
2018-12-23T17:45:28.032Z,100.00
2018-12-23T17:47:57.000Z,100.00
2018-12-23T17:50:22.933Z,100.00
2018-12-23T17:52:49.203Z,100.00
2018-12-23T17:55:15.192Z,100.00
2018-12-23T17:57:41.168Z,100.00
2018-12-23T18:00:07.493Z,100.00
2018-12-23T18:02:33.489Z,100.00
2018-12-23T18:05:02.610Z,100.00
2018-12-23T18:07:28.613Z,100.00
2018-12-23T18:09:57.617Z,100.00
2018-12-23T18:12:23.593Z,100.00
2018-12-23T18:14:52.973Z,100.00
2018-12-23T18:17:19.991Z,100.00
2018-12-23T18:19:46.571Z,100.00
2018-12-23T18:22:12.554Z,100.00
2018-12-23T18:24:40.447Z,100.00
2018-12-23T18:27:06.665Z,100.00
2018-12-23T18:29:32.630Z,100.00
2018-12-23T18:31:58.605Z,100.00
2018-12-23T18:34:24.628Z,100.00
2018-12-23T18:36:53.636Z,100.00
2018-12-23T18:39:19.618Z,100.00
2018-12-23T18:41:48.329Z,100.00
2018-12-23T18:44:14.308Z,100.00
2018-12-23T18:46:45.097Z,100.00
2018-12-23T18:49:11.338Z,100.00
2018-12-23T18:51:37.326Z,100.00
2018-12-23T18:54:03.342Z,100.00
2018-12-23T18:56:31.212Z,100.00
2018-12-23T18:58:57.320Z,100.00
2018-12-23T19:01:26.572Z,100.00
2018-12-23T19:03:52.754Z,100.00
2018-12-23T19:06:18.800Z,100.00
2018-12-23T19:08:48.478Z,100.00
2018-12-23T19:11:18.748Z,100.00
2018-12-23T19:14:05.449Z,100.00
2018-12-23T19:16:38.224Z,100.00
2018-12-23T19:19:32.609Z,100.00
2018-12-23T19:22:25.855Z,100.00
2018-12-23T19:24:55.611Z,100.00
2018-12-23T19:27:37.605Z,100.00
2018-12-23T19:30:35.102Z,100.00
2018-12-23T19:33:07.705Z,100.00
2018-12-23T19:35:41.112Z,100.00
2018-12-23T19:38:16.599Z,100.00
2018-12-23T19:41:01.105Z,100.00
2018-12-23T19:43:49.140Z,100.00
2018-12-23T19:46:45.130Z,100.00
2018-12-23T19:49:36.190Z,100.00
2018-12-23T19:52:22.921Z,100.00
2018-12-23T19:55:01.134Z,100.00
2018-12-23T19:57:41.543Z,100.00
2018-12-23T20:00:26.337Z,100.00
2018-12-23T20:03:14.030Z,100.00
2018-12-23T20:06:07.143Z,100.00
2018-12-23T20:09:01.205Z,100.00
2018-12-23T20:11:47.940Z,100.00
2018-12-23T20:14:34.711Z,100.00
2018-12-23T20:17:39.947Z,100.00
2018-12-23T20:20:22.094Z,100.00
2018-12-23T20:23:00.934Z,100.00
2018-12-23T20:25:46.341Z,100.00
2018-12-23T20:28:37.190Z,100.00
2018-12-23T20:31:18.822Z,100.00
2018-12-23T20:34:05.570Z,100.00
2018-12-23T20:36:37.895Z,100.00
2018-12-23T20:39:13.666Z,100.00
2018-12-23T20:41:58.865Z,100.00
2018-12-23T20:44:47.445Z,100.00
2018-12-23T20:47:38.073Z,100.00
2018-12-23T20:50:15.437Z,100.00
2018-12-23T20:52:54.257Z,100.00
2018-12-23T20:55:32.853Z,100.00
2018-12-23T20:58:19.499Z,100.00
2018-12-23T21:00:56.458Z,100.00
2018-12-23T21:03:53.108Z,100.00
2018-12-23T21:06:26.074Z,100.00
2018-12-23T21:09:29.917Z,100.00
2018-12-23T21:12:20.098Z,100.00
2018-12-23T21:15:23.816Z,100.00
2018-12-23T21:17:56.663Z,100.00
2018-12-23T21:21:00.376Z,100.00
2018-12-23T21:23:51.343Z,100.00
2018-12-23T21:26:24.068Z,100.00
2018-12-23T21:29:27.528Z,100.00
2018-12-23T21:31:59.891Z,100.00
2018-12-23T21:34:49.594Z,100.00
2018-12-23T21:37:37.061Z,100.00
2018-12-23T21:40:25.813Z,100.00
2018-12-23T21:43:00.876Z,100.00
2018-12-23T21:45:50.881Z,100.00
2018-12-23T21:48:42.061Z,100.00
2018-12-23T21:51:17.480Z,100.00
2018-12-23T21:54:11.744Z,100.00
2018-12-23T21:56:47.976Z,100.00
2018-12-23T21:59:23.064Z,100.00
2018-12-23T22:02:02.098Z,100.00
2018-12-23T22:04:40.286Z,100.00
2018-12-23T22:07:27.011Z,100.00
2018-12-23T22:09:59.686Z,100.00
2018-12-23T22:12:41.803Z,100.00
2018-12-23T22:15:07.784Z,100.00
2018-12-23T22:17:33.961Z,100.00
2018-12-23T22:20:00.242Z,100.00
2018-12-23T22:22:26.240Z,100.00
2018-12-23T22:24:52.315Z,100.00
2018-12-23T22:27:18.282Z,100.00
2018-12-23T22:29:44.224Z,100.00
2018-12-23T22:32:10.456Z,100.00
2018-12-23T22:34:36.421Z,100.00
2018-12-23T22:37:02.464Z,100.00
2018-12-23T22:39:28.454Z,100.00
2018-12-23T22:41:57.446Z,100.00
2018-12-23T22:44:23.689Z,100.00
2018-12-23T22:46:49.779Z,100.00
2018-12-23T22:49:16.040Z,100.00
2018-12-23T22:51:42.022Z,100.00
2018-12-23T22:54:11.019Z,100.00
2018-12-23T22:56:37.316Z,100.00
2018-12-23T22:59:03.383Z,100.00
2018-12-23T23:01:29.629Z,100.00
2018-12-23T23:03:57.937Z,100.00
2018-12-23T23:06:23.967Z,100.00
2018-12-23T23:09:10.065Z,100.00
2018-12-23T23:11:36.023Z,100.00
2018-12-23T23:14:02.027Z,100.00
2018-12-23T23:16:27.980Z,100.00
2018-12-23T23:18:53.967Z,100.00
2018-12-23T23:21:20.216Z,100.00
2018-12-23T23:23:46.202Z,100.00
2018-12-23T23:26:12.328Z,100.00
2018-12-23T23:28:39.666Z,100.00
2018-12-23T23:31:05.730Z,100.00
2018-12-23T23:33:31.732Z,100.00
2018-12-23T23:35:57.876Z,100.00
2018-12-23T23:38:25.889Z,100.00
2018-12-23T23:40:52.116Z,100.00
2018-12-23T23:43:18.378Z,100.00
2018-12-23T23:45:44.382Z,100.00
2018-12-23T23:48:10.656Z,100.00
2018-12-23T23:50:36.637Z,100.00
2018-12-23T23:53:02.598Z,100.00
2018-12-23T23:55:28.568Z,100.00
2018-12-23T23:57:55.688Z,100.00
